createdAt,value
2017-01-16T00:00:03.323Z,1001.56
2017-01-16T00:01:13.661Z,1001.56
2017-01-16T00:02:23.601Z,1001.58
2017-01-16T00:03:34.351Z,1001.57
2017-01-16T00:04:45.095Z,1001.57
2017-01-16T00:05:55.861Z,1001.59
2017-01-16T00:07:06.252Z,1001.55
2017-01-16T00:08:17.036Z,1001.55
2017-01-16T00:09:27.791Z,1001.56
2017-01-16T00:10:37.744Z,1001.56
2017-01-16T00:11:48.489Z,1001.59
2017-01-16T00:12:58.838Z,1001.56
2017-01-16T00:14:09.574Z,1001.56
2017-01-16T00:15:20.335Z,1001.55
2017-01-16T00:16:30.688Z,1001.55
2017-01-16T00:17:41.048Z,1001.57
2017-01-16T00:18:51.005Z,1001.56
2017-01-16T00:20:00.966Z,1001.61
2017-01-16T00:21:11.737Z,1001.6
2017-01-16T00:22:22.084Z,1001.6
2017-01-16T00:23:32.436Z,1001.59
2017-01-16T00:24:42.805Z,1001.6
2017-01-16T00:25:53.146Z,1001.61
2017-01-16T00:27:03.882Z,1001.64
2017-01-16T00:28:14.634Z,1001.6
2017-01-16T00:29:24.577Z,1001.63
2017-01-16T00:30:35.351Z,1001.63
2017-01-16T00:31:46.087Z,1001.6
2017-01-16T00:32:56.045Z,1001.6
2017-01-16T00:34:06.386Z,1001.62
2017-01-16T00:35:16.734Z,1001.64
2017-01-16T00:36:27.085Z,1001.64
2017-01-16T00:37:37.041Z,1001.64
2017-01-16T00:38:47.395Z,1001.63
2017-01-16T00:39:58.131Z,1001.62
2017-01-16T00:41:08.881Z,1001.69
2017-01-16T00:42:19.656Z,1001.67
2017-01-16T00:43:29.605Z,1001.65
2017-01-16T00:44:40.341Z,1001.63
2017-01-16T00:45:50.357Z,1001.66
2017-01-16T00:47:00.694Z,1001.65
2017-01-16T00:48:10.250Z,1001.68
2017-01-16T00:49:20.988Z,1001.7
2017-01-16T00:50:30.940Z,1001.68
2017-01-16T00:51:41.292Z,1001.71
2017-01-16T00:52:52.013Z,1001.72
2017-01-16T00:54:02.765Z,1001.69
2017-01-16T00:55:13.112Z,1001.72
2017-01-16T00:56:23.458Z,1001.74
2017-01-16T00:57:34.190Z,1001.71
2017-01-16T00:58:44.162Z,1001.75
2017-01-16T00:59:53.714Z,1001.76
2017-01-16T01:01:04.075Z,1001.75
2017-01-16T01:02:14.855Z,1001.77
2017-01-16T01:03:25.194Z,1001.77
2017-01-16T01:04:35.535Z,1001.78
2017-01-16T01:05:45.886Z,1001.81
2017-01-16T01:06:56.624Z,1001.77
2017-01-16T01:08:06.580Z,1001.8
2017-01-16T01:09:17.321Z,1001.8
2017-01-16T01:10:27.328Z,1001.81
2017-01-16T01:11:38.076Z,1001.75
2017-01-16T01:12:48.831Z,1001.78
2017-01-16T01:13:59.563Z,1001.82
2017-01-16T01:15:09.901Z,1001.77
2017-01-16T01:16:20.266Z,1001.8
2017-01-16T01:17:30.615Z,1001.79
2017-01-16T01:18:41.350Z,1001.75
2017-01-16T01:19:51.693Z,1001.73
2017-01-16T01:21:02.038Z,1001.75
2017-01-16T01:22:11.979Z,1001.72
2017-01-16T01:23:22.722Z,1001.72
2017-01-16T01:24:32.693Z,1001.7
2017-01-16T01:25:43.426Z,1001.68
2017-01-16T01:26:54.167Z,1001.65
2017-01-16T01:28:04.936Z,1001.68
2017-01-16T01:29:15.662Z,1001.64
2017-01-16T01:30:26.018Z,1001.7
2017-01-16T01:31:36.368Z,1001.71
2017-01-16T01:32:47.140Z,1001.71
2017-01-16T01:33:57.097Z,1001.72
2017-01-16T01:35:07.049Z,1001.7
2017-01-16T01:36:17.789Z,1001.67
2017-01-16T01:37:27.734Z,1001.66
2017-01-16T01:38:37.303Z,1001.64
2017-01-16T01:39:47.645Z,1001.68
2017-01-16T01:40:58.011Z,1001.64
2017-01-16T01:42:08.367Z,1001.62
2017-01-16T01:43:19.115Z,1001.6
2017-01-16T01:44:29.116Z,1001.62
2017-01-16T01:45:39.894Z,1001.65
2017-01-16T01:46:49.835Z,1001.61
2017-01-16T01:48:00.578Z,1001.58
2017-01-16T01:49:11.308Z,1001.61
2017-01-16T01:50:22.050Z,1001.58
2017-01-16T01:51:32.782Z,1001.62
2017-01-16T01:52:43.128Z,1001.63
2017-01-16T01:53:53.480Z,1001.61
2017-01-16T01:55:04.247Z,1001.62
2017-01-16T01:56:14.593Z,1001.64
2017-01-16T01:57:25.356Z,1001.64
2017-01-16T01:58:35.318Z,1001.61
2017-01-16T01:59:45.644Z,1001.6
2017-01-16T02:00:56.010Z,1001.62
2017-01-16T02:02:06.762Z,1001.62
2017-01-16T02:03:17.119Z,1001.59
2017-01-16T02:04:27.450Z,1001.63
2017-01-16T02:05:38.181Z,1001.64
2017-01-16T02:06:48.914Z,1001.62
2017-01-16T02:07:59.253Z,1001.62
2017-01-16T02:09:10.003Z,1001.62
2017-01-16T02:10:20.736Z,1001.59
2017-01-16T02:11:31.467Z,1001.6
2017-01-16T02:12:42.205Z,1001.6
2017-01-16T02:13:52.160Z,1001.6
2017-01-16T02:15:02.952Z,1001.55
2017-01-16T02:16:12.899Z,1001.58
2017-01-16T02:17:23.655Z,1001.56
2017-01-16T02:18:34.401Z,1001.57
2017-01-16T02:19:44.378Z,1001.59
2017-01-16T02:20:55.123Z,1001.55
2017-01-16T02:22:05.485Z,1001.52
2017-01-16T02:23:16.227Z,1001.55
2017-01-16T02:24:26.171Z,1001.52
2017-01-16T02:25:36.121Z,1001.47
2017-01-16T02:26:46.467Z,1001.49
2017-01-16T02:27:57.204Z,1001.49
2017-01-16T02:29:07.552Z,1001.46
2017-01-16T02:30:18.283Z,1001.5
2017-01-16T02:31:28.225Z,1001.49
2017-01-16T02:32:38.967Z,1001.45
2017-01-16T02:33:49.713Z,1001.52
2017-01-16T02:35:00.441Z,1001.54
2017-01-16T02:36:11.189Z,1001.54
2017-01-16T02:37:21.953Z,1001.56
2017-01-16T02:38:32.695Z,1001.57
2017-01-16T02:39:43.450Z,1001.6
2017-01-16T02:40:54.194Z,1001.6
2017-01-16T02:42:04.964Z,1001.56
2017-01-16T02:43:15.312Z,1001.64
2017-01-16T02:44:25.640Z,1001.6
2017-01-16T02:45:36.402Z,1001.55
2017-01-16T02:46:46.354Z,1001.55
2017-01-16T02:47:56.738Z,1001.55
2017-01-16T02:49:07.072Z,1001.56
2017-01-16T02:50:17.805Z,1001.55
2017-01-16T02:51:27.750Z,1001.55
2017-01-16T02:52:38.730Z,1001.52
2017-01-16T02:53:50.028Z,1001.56
2017-01-16T02:55:00.399Z,1001.56
2017-01-16T02:56:10.741Z,1001.56
2017-01-16T02:57:21.087Z,1001.59
2017-01-16T02:58:30.639Z,1001.55
2017-01-16T02:59:41.371Z,1001.54
2017-01-16T03:00:51.702Z,1001.53
2017-01-16T03:02:02.055Z,1001.51
2017-01-16T03:33:18.771Z,1001.3
2017-01-16T03:34:29.112Z,1001.31
2017-01-16T03:35:39.828Z,1001.29
2017-01-16T03:36:49.779Z,1001.26
2017-01-16T03:38:00.546Z,1001.31
2017-01-16T03:39:11.353Z,1001.29
2017-01-16T03:40:22.085Z,1001.29
2017-01-16T03:41:32.432Z,1001.3
2017-01-16T03:42:43.168Z,1001.27
2017-01-16T03:43:53.509Z,1001.31
2017-01-16T03:45:04.254Z,1001.33
2017-01-16T03:46:14.602Z,1001.38
2017-01-16T03:47:25.407Z,1001.35
2017-01-16T03:48:35.757Z,1001.38
2017-01-16T03:49:46.104Z,1001.36
2017-01-16T03:50:56.852Z,1001.35
2017-01-16T03:52:07.191Z,1001.34
2017-01-16T03:53:17.932Z,1001.32
2017-01-16T03:54:28.921Z,1001.33
2017-01-16T03:55:38.088Z,1001.34
2017-01-16T03:56:47.634Z,1001.37
2017-01-16T03:57:57.980Z,1001.35
2017-01-16T03:59:07.928Z,1001.37
2017-01-16T04:00:18.668Z,1001.37
2017-01-16T04:01:29.406Z,1001.36
2017-01-16T04:02:40.153Z,1001.37
2017-01-16T04:03:50.509Z,1001.38
2017-01-16T04:05:01.246Z,1001.38
2017-01-16T04:06:11.994Z,1001.43
2017-01-16T04:07:22.730Z,1001.41
2017-01-16T04:08:32.767Z,1001.44
2017-01-16T04:09:43.114Z,1001.43
2017-01-16T04:10:53.459Z,1001.43
2017-01-16T04:12:03.008Z,1001.42
2017-01-16T04:13:13.744Z,1001.41
2017-01-16T04:14:24.121Z,1001.42
2017-01-16T04:15:33.680Z,1001.4
2017-01-16T04:16:44.424Z,1001.43
2017-01-16T04:17:55.167Z,1001.44
2017-01-16T04:19:05.512Z,1001.41
2017-01-16T04:20:15.864Z,1001.4
2017-01-16T04:21:25.027Z,1001.41
2017-01-16T04:22:35.756Z,1001.39
2017-01-16T04:23:46.104Z,1001.43
2017-01-16T04:24:56.445Z,1001.48
2017-01-16T04:26:06.807Z,1001.37
2017-01-16T04:27:17.553Z,1001.4
2017-01-16T04:28:27.546Z,1001.42
2017-01-16T04:29:37.877Z,1001.42
2017-01-16T04:30:48.274Z,1001.46
2017-01-16T04:31:57.821Z,1001.4
2017-01-16T04:33:08.169Z,1001.46
2017-01-16T04:34:18.913Z,1001.43
2017-01-16T04:35:29.647Z,1001.42
2017-01-16T04:36:40.439Z,1001.41
2017-01-16T04:37:51.181Z,1001.43
2017-01-16T04:39:01.931Z,1001.43
2017-01-16T04:40:12.695Z,1001.46
2017-01-16T04:41:23.433Z,1001.45
2017-01-16T04:42:34.177Z,1001.43
2017-01-16T04:43:44.918Z,1001.47
2017-01-16T04:44:55.664Z,1001.48
2017-01-16T04:46:05.618Z,1001.47
2017-01-16T04:47:16.355Z,1001.53
2017-01-16T04:48:26.306Z,1001.45
2017-01-16T04:49:36.653Z,1001.47
2017-01-16T04:50:47.018Z,1001.53
2017-01-16T04:51:57.583Z,1001.51
2017-01-16T04:53:08.012Z,1001.53
2017-01-16T04:54:18.798Z,1001.57
2017-01-16T04:55:28.786Z,1001.5
2017-01-16T04:56:39.585Z,1001.54
2017-01-16T04:57:49.972Z,1001.55
2017-01-16T04:59:00.774Z,1001.53
2017-01-16T05:00:11.571Z,1001.48
2017-01-16T05:01:21.977Z,1001.52
2017-01-16T05:02:31.966Z,1001.55
2017-01-16T05:03:41.976Z,1001.51
2017-01-16T05:04:52.773Z,1001.57
2017-01-16T05:06:03.614Z,1001.5
2017-01-16T05:07:14.433Z,1001.53
2017-01-16T05:08:25.225Z,1001.5
2017-01-16T05:09:36.024Z,1001.48
2017-01-16T05:10:46.424Z,1001.5
2017-01-16T05:11:57.224Z,1001.53
2017-01-16T05:13:08.062Z,1001.55
2017-01-16T05:14:18.566Z,1001.5
2017-01-16T05:15:29.010Z,1001.51
2017-01-16T05:16:39.885Z,1001.52
2017-01-16T05:17:50.759Z,1001.53
2017-01-16T05:19:01.215Z,1001.54
2017-01-16T05:20:11.680Z,1001.56
2017-01-16T05:21:22.072Z,1001.54
2017-01-16T05:22:32.468Z,1001.51
2017-01-16T05:23:42.866Z,1001.54
2017-01-16T05:24:53.263Z,1001.51
2017-01-16T05:26:03.650Z,1001.54
2017-01-16T05:27:14.446Z,1001.54
2017-01-16T05:28:25.245Z,1001.51
2017-01-16T05:29:35.238Z,1001.53
2017-01-16T05:30:45.640Z,1001.5
2017-01-16T05:31:56.459Z,1001.56
2017-01-16T05:33:07.260Z,1001.52
2017-01-16T05:34:18.043Z,1001.52
2017-01-16T05:35:28.834Z,1001.51
2017-01-16T05:36:39.239Z,1001.53
2017-01-16T05:37:49.632Z,1001.54
2017-01-16T05:38:59.628Z,1001.55
2017-01-16T05:40:10.415Z,1001.59
2017-01-16T05:41:21.234Z,1001.59
2017-01-16T05:42:31.581Z,1001.63
2017-01-16T05:43:41.921Z,1001.62
2017-01-16T05:44:51.884Z,1001.66
2017-01-16T05:46:01.831Z,1001.68
2017-01-16T05:47:12.573Z,1001.74
2017-01-16T05:48:22.914Z,1001.77
2017-01-16T05:49:33.263Z,1001.74
2017-01-16T05:50:44.007Z,1001.75
2017-01-16T05:51:54.348Z,1001.8
2017-01-16T05:53:04.294Z,1001.78
2017-01-16T05:54:14.641Z,1001.79
2017-01-16T05:55:25.388Z,1001.88
2017-01-16T05:56:35.749Z,1001.84
2017-01-16T05:57:46.102Z,1001.89
2017-01-16T05:58:56.845Z,1001.87
2017-01-16T06:00:07.186Z,1001.87
2017-01-16T06:01:17.533Z,1001.92
2017-01-16T06:02:27.868Z,1001.9
2017-01-16T06:03:37.815Z,1001.88
2017-01-16T06:04:48.545Z,1001.9
2017-01-16T06:05:58.484Z,1001.88
2017-01-16T06:07:09.234Z,1001.91
2017-01-16T06:08:19.977Z,1001.89
2017-01-16T06:09:30.323Z,1001.94
2017-01-16T06:10:40.662Z,1001.92
2017-01-16T06:11:51.393Z,1001.94
2017-01-16T06:13:02.140Z,1001.96
2017-01-16T06:14:12.867Z,1001.93
2017-01-16T06:15:23.597Z,1001.99
2017-01-16T06:16:33.551Z,1001.99
2017-01-16T06:17:43.901Z,1001.99
2017-01-16T06:18:53.863Z,1002.01
2017-01-16T06:20:04.205Z,1002.03
2017-01-16T06:21:14.550Z,1002
2017-01-16T06:22:25.288Z,1002.09
2017-01-16T06:23:35.635Z,1002.06
2017-01-16T06:24:45.981Z,1002.09
2017-01-16T06:25:56.708Z,1002.07
2017-01-16T06:27:06.260Z,1002.09
2017-01-16T06:28:16.656Z,1002.08
2017-01-16T06:29:26.989Z,1002.14
2017-01-16T06:30:37.715Z,1002.12
2017-01-16T06:31:48.071Z,1002.14
2017-01-16T06:32:58.411Z,1002.16
2017-01-16T06:34:09.140Z,1002.18
2017-01-16T06:35:19.512Z,1002.2
2017-01-16T06:36:30.268Z,1002.23
2017-01-16T06:37:40.616Z,1002.22
2017-01-16T06:38:51.352Z,1002.25
2017-01-16T06:40:01.711Z,1002.25
2017-01-16T06:41:12.486Z,1002.27
2017-01-16T06:42:22.832Z,1002.26
2017-01-16T06:43:33.566Z,1002.26
2017-01-16T06:44:44.296Z,1002.31
2017-01-16T06:45:55.028Z,1002.35
2017-01-16T06:47:05.393Z,1002.38
2017-01-16T06:48:16.136Z,1002.34
2017-01-16T06:49:26.877Z,1002.32
2017-01-16T06:50:37.620Z,1002.37
2017-01-16T06:51:47.971Z,1002.35
2017-01-16T06:52:58.744Z,1002.31
2017-01-16T06:54:09.077Z,1002.34
2017-01-16T06:55:19.433Z,1002.31
2017-01-16T06:56:30.183Z,1002.31
2017-01-16T06:57:40.921Z,1002.28
2017-01-16T06:58:51.261Z,1002.3
2017-01-16T07:00:01.598Z,1002.29
2017-01-16T07:01:12.344Z,1002.29
2017-01-16T07:02:23.121Z,1002.29
2017-01-16T07:03:33.469Z,1002.3
2017-01-16T07:04:43.816Z,1002.34
2017-01-16T07:05:53.771Z,1002.38
2017-01-16T07:07:04.124Z,1002.39
2017-01-16T07:08:14.861Z,1002.4
2017-01-16T07:09:24.836Z,1002.39
2017-01-16T07:10:35.183Z,1002.38
2017-01-16T07:11:45.916Z,1002.39
2017-01-16T07:12:55.856Z,1002.43
2017-01-16T07:14:06.198Z,1002.43
2017-01-16T07:15:16.548Z,1002.46
2017-01-16T07:16:27.300Z,1002.48
2017-01-16T07:17:37.637Z,1002.45
2017-01-16T07:18:48.383Z,1002.53
2017-01-16T07:19:58.729Z,1002.47
2017-01-16T07:21:09.077Z,1002.47
2017-01-16T07:22:19.413Z,1002.48
2017-01-16T07:23:29.770Z,1002.48
2017-01-16T07:24:40.516Z,1002.5
2017-01-16T07:25:50.472Z,1002.51
2017-01-16T07:27:00.826Z,1002.55
2017-01-16T07:28:11.562Z,1002.51
2017-01-16T07:29:21.113Z,1002.58
2017-01-16T07:30:31.051Z,1002.62
2017-01-16T07:31:41.409Z,1002.58
2017-01-16T07:32:51.782Z,1002.57
2017-01-16T07:34:02.132Z,1002.58
2017-01-16T07:35:12.521Z,1002.63
2017-01-16T07:36:22.865Z,1002.6
2017-01-16T07:37:33.222Z,1002.62
2017-01-16T07:38:43.578Z,1002.65
2017-01-16T07:39:54.328Z,1002.59
2017-01-16T07:41:05.064Z,1002.57
2017-01-16T07:42:15.002Z,1002.61
2017-01-16T07:43:25.749Z,1002.63
2017-01-16T07:44:35.693Z,1002.57
2017-01-16T07:45:46.427Z,1002.6
2017-01-16T07:46:55.994Z,1002.59
2017-01-16T07:48:06.769Z,1002.59
2017-01-16T07:49:16.337Z,1002.62
2017-01-16T07:50:25.900Z,1002.64
2017-01-16T07:51:36.239Z,1002.6
2017-01-16T07:52:46.985Z,1002.66
2017-01-16T07:53:57.733Z,1002.67
2017-01-16T07:55:08.471Z,1002.65
2017-01-16T07:56:18.817Z,1002.69
2017-01-16T07:57:29.562Z,1002.75
2017-01-16T07:58:39.914Z,1002.74
2017-01-16T07:59:50.277Z,1002.73
2017-01-16T08:01:00.623Z,1002.77
2017-01-16T08:02:11.380Z,1002.77
2017-01-16T08:03:21.726Z,1002.83
2017-01-16T08:04:31.664Z,1002.87
2017-01-16T08:05:42.390Z,1002.86
2017-01-16T08:06:53.367Z,1002.84
2017-01-16T08:08:03.717Z,1002.86
2017-01-16T08:09:14.457Z,1002.87
2017-01-16T08:10:24.011Z,1002.85
2017-01-16T08:11:33.984Z,1002.84
2017-01-16T08:12:44.724Z,1002.86
2017-01-16T08:13:55.096Z,1002.85
2017-01-16T08:15:05.824Z,1002.87
2017-01-16T08:16:16.563Z,1002.84
2017-01-16T08:17:27.322Z,1002.85
2017-01-16T08:18:37.273Z,1002.91
2017-01-16T08:19:48.030Z,1002.91
2017-01-16T08:20:58.375Z,1002.94
2017-01-16T08:22:09.117Z,1002.97
2017-01-16T08:23:19.860Z,1003.03
2017-01-16T08:24:30.603Z,1002.99
2017-01-16T08:25:40.947Z,1003
2017-01-16T08:26:51.309Z,1002.98
2017-01-16T08:28:01.695Z,1003
2017-01-16T08:29:12.441Z,1002.98
2017-01-16T08:30:23.172Z,1002.97
2017-01-16T08:31:33.931Z,1002.97
2017-01-16T08:32:43.907Z,1003.02
2017-01-16T08:33:53.909Z,1003
2017-01-16T08:35:04.240Z,1003.02
2017-01-16T08:36:14.984Z,1003.06
2017-01-16T08:37:25.324Z,1003.07
2017-01-16T08:38:35.679Z,1003.05
2017-01-16T08:39:46.417Z,1003.06
2017-01-16T08:40:57.165Z,1003.07
2017-01-16T08:42:07.901Z,1003.09
2017-01-16T08:43:18.238Z,1003.11
2017-01-16T08:44:28.579Z,1003.13
2017-01-16T08:45:39.313Z,1003.12
2017-01-16T08:46:50.054Z,1003.07
2017-01-16T08:48:00.412Z,1003.13
2017-01-16T08:49:10.747Z,1003.16
2017-01-16T08:50:20.707Z,1003.17
2017-01-16T08:51:31.048Z,1003.17
2017-01-16T08:52:41.813Z,1003.19
2017-01-16T08:53:51.768Z,1003.2
2017-01-16T08:55:01.729Z,1003.21
2017-01-16T08:56:12.465Z,1003.21
2017-01-16T08:57:23.197Z,1003.21
2017-01-16T08:58:33.161Z,1003.23
2017-01-16T08:59:43.921Z,1003.25
2017-01-16T09:00:54.261Z,1003.22
2017-01-16T09:02:04.609Z,1003.23
2017-01-16T09:03:14.957Z,1003.32
2017-01-16T09:04:25.293Z,1003.3
2017-01-16T09:05:36.022Z,1003.31
2017-01-16T09:06:46.387Z,1003.29
2017-01-16T09:07:57.134Z,1003.32
2017-01-16T09:09:07.090Z,1003.29
2017-01-16T09:10:17.834Z,1003.31
2017-01-16T09:11:28.184Z,1003.3
2017-01-16T09:12:38.924Z,1003.33
2017-01-16T09:13:48.875Z,1003.33
2017-01-16T09:14:59.629Z,1003.36
2017-01-16T09:16:10.382Z,1003.3
2017-01-16T09:17:21.128Z,1003.35
2017-01-16T09:18:31.495Z,1003.36
2017-01-16T09:19:41.842Z,1003.33
2017-01-16T09:20:52.579Z,1003.33
2017-01-16T09:22:02.526Z,1003.34
2017-01-16T09:23:12.872Z,1003.34
2017-01-16T09:24:23.611Z,1003.33
2017-01-16T09:25:34.197Z,1003.38
2017-01-16T09:26:44.173Z,1003.38
2017-01-16T09:27:54.955Z,1003.34
2017-01-16T09:29:04.910Z,1003.34
2017-01-16T09:30:14.870Z,1003.33
2017-01-16T09:31:25.217Z,1003.31
2017-01-16T09:32:35.567Z,1003.3
2017-01-16T09:33:46.311Z,1003.28
2017-01-16T09:34:57.056Z,1003.3
2017-01-16T09:36:07.028Z,1003.29
2017-01-16T09:37:17.775Z,1003.31
2017-01-16T09:38:28.151Z,1003.31
2017-01-16T09:39:38.503Z,1003.32
2017-01-16T09:40:48.844Z,1003.32
2017-01-16T09:41:59.191Z,1003.32
2017-01-16T09:43:09.138Z,1003.34
2017-01-16T09:44:19.499Z,1003.35
2017-01-16T09:45:29.448Z,1003.32
2017-01-16T09:46:40.197Z,1003.32
2017-01-16T09:47:50.985Z,1003.34
2017-01-16T09:49:01.350Z,1003.32
2017-01-16T09:50:11.704Z,1003.33
2017-01-16T09:51:22.091Z,1003.34
2017-01-16T09:52:32.432Z,1003.35
2017-01-16T09:53:42.769Z,1003.33
2017-01-16T09:54:53.512Z,1003.33
2017-01-16T09:56:03.468Z,1003.32
2017-01-16T09:57:14.210Z,1003.3
2017-01-16T09:58:24.557Z,1003.3
2017-01-16T09:59:34.919Z,1003.28
2017-01-16T10:00:45.269Z,1003.29
2017-01-16T10:01:56.042Z,1003.31
2017-01-16T10:03:06.396Z,1003.27
2017-01-16T10:04:17.137Z,1003.3
2017-01-16T10:05:27.494Z,1003.28
2017-01-16T10:06:38.235Z,1003.25
2017-01-16T10:07:48.185Z,1003.24
2017-01-16T10:08:58.133Z,1003.27
2017-01-16T10:10:08.505Z,1003.22
2017-01-16T10:11:19.245Z,1003.18
2017-01-16T10:12:29.223Z,1003.26
2017-01-16T10:13:39.581Z,1003.21
2017-01-16T10:14:49.546Z,1003.21
2017-01-16T10:15:59.893Z,1003.17
2017-01-16T10:17:09.860Z,1003.16
2017-01-16T10:18:20.614Z,1003.16
2017-01-16T10:19:31.343Z,1003.16
2017-01-16T10:20:42.093Z,1003.12
2017-01-16T10:21:52.448Z,1003.13
2017-01-16T10:23:03.203Z,1003.14
2017-01-16T10:24:13.196Z,1003.13
2017-01-16T10:25:23.192Z,1003.13
2017-01-16T10:26:33.540Z,1003.16
2017-01-16T10:27:44.296Z,1003.12
2017-01-16T10:28:54.655Z,1003.13
2017-01-16T10:30:05.002Z,1003.09
2017-01-16T10:31:15.749Z,1003.13
2017-01-16T10:32:25.702Z,1003.14
2017-01-16T10:33:36.439Z,1003.16
2017-01-16T10:34:46.802Z,1003.12
2017-01-16T10:35:57.164Z,1003.12
2017-01-16T10:37:07.540Z,1003.11
2017-01-16T10:38:18.292Z,1003.13
2017-01-16T10:39:28.638Z,1003.1
2017-01-16T10:40:38.585Z,1003.13
2017-01-16T10:41:49.342Z,1003.13
2017-01-16T10:42:59.701Z,1003.16
2017-01-16T10:44:10.072Z,1003.09
2017-01-16T10:45:20.408Z,1003.07
2017-01-16T10:46:31.209Z,1003.02
2017-01-16T10:47:41.548Z,1003.02
2017-01-16T10:48:52.293Z,1002.98
2017-01-16T10:50:03.050Z,1002.95
2017-01-16T10:51:13.792Z,1002.98
2017-01-16T10:52:24.143Z,1002.96
2017-01-16T10:53:34.892Z,1002.98
2017-01-16T10:54:45.632Z,1002.99
2017-01-16T10:55:55.585Z,1002.97
2017-01-16T10:57:06.340Z,1002.97
2017-01-16T10:58:17.088Z,1003.01
2017-01-16T10:59:27.070Z,1002.99
2017-01-16T11:00:37.419Z,1002.98
2017-01-16T11:01:48.162Z,1002.96
2017-01-16T11:02:58.896Z,1002.92
2017-01-16T11:04:09.652Z,1002.97
2017-01-16T11:05:19.998Z,1002.99
2017-01-16T11:06:30.360Z,1002.94
2017-01-16T11:07:41.107Z,1002.98
2017-01-16T11:08:51.888Z,1002.98
2017-01-16T11:10:02.629Z,1002.97
2017-01-16T11:11:12.981Z,1003.03
2017-01-16T11:12:22.932Z,1003
2017-01-16T11:13:32.913Z,1003.02
2017-01-16T11:14:43.271Z,1003.08
2017-01-16T11:15:53.621Z,1003.05
2017-01-16T11:17:04.207Z,1003.01
2017-01-16T11:18:14.559Z,1003.1
2017-01-16T11:19:24.912Z,1003.04
2017-01-16T11:20:35.669Z,1003.06
2017-01-16T11:21:45.625Z,1003.06
2017-01-16T11:22:56.366Z,1003.02
2017-01-16T11:24:07.100Z,1003.05
2017-01-16T11:25:17.851Z,1003.02
2017-01-16T11:26:28.604Z,1003.03
2017-01-16T11:27:38.946Z,1003.01
2017-01-16T11:28:49.721Z,1003.08
2017-01-16T11:30:00.061Z,1003.04
2017-01-16T11:31:10.428Z,1003.03
2017-01-16T11:32:21.176Z,1003.01
2017-01-16T11:33:31.123Z,1003
2017-01-16T11:34:41.893Z,1003.02
2017-01-16T11:35:51.866Z,1003.02
2017-01-16T11:37:02.604Z,1003.03
2017-01-16T11:38:12.955Z,1003.03
2017-01-16T11:39:23.343Z,1002.98
2017-01-16T11:40:34.086Z,1002.99
2017-01-16T11:41:44.435Z,1003.02
2017-01-16T11:42:54.810Z,1002.99
2017-01-16T11:44:05.170Z,1002.95
2017-01-16T11:45:15.538Z,1002.99
2017-01-16T11:46:25.880Z,1002.98
2017-01-16T11:47:36.251Z,1002.99
2017-01-16T11:48:46.584Z,1002.97
2017-01-16T11:49:56.959Z,1002.97
2017-01-16T11:51:07.696Z,1003.01
2017-01-16T11:52:17.651Z,1002.98
2017-01-16T11:53:28.415Z,1002.97
2017-01-16T11:54:39.162Z,1002.95
2017-01-16T11:55:49.907Z,1002.96
2017-01-16T11:57:00.654Z,1002.99
2017-01-16T11:58:11.002Z,1002.95
2017-01-16T11:59:21.748Z,1003
2017-01-16T12:00:32.494Z,1002.93
2017-01-16T12:01:43.247Z,1002.99
2017-01-16T12:02:53.219Z,1002.96
2017-01-16T12:04:03.572Z,1002.97
2017-01-16T12:05:13.953Z,1002.95
2017-01-16T12:06:24.706Z,1002.94
2017-01-16T12:07:35.046Z,1002.91
2017-01-16T12:08:45.393Z,1002.93
2017-01-16T12:09:56.157Z,1002.94
2017-01-16T12:11:06.506Z,1002.91
2017-01-16T12:12:16.851Z,1002.98
2017-01-16T12:13:27.581Z,1002.99
2017-01-16T12:14:38.157Z,1003.01
2017-01-16T12:15:48.894Z,1002.99
2017-01-16T12:16:59.235Z,1002.95
2017-01-16T12:18:09.194Z,1003.01
2017-01-16T12:19:19.154Z,1002.97
2017-01-16T12:20:29.532Z,1002.98
2017-01-16T12:21:39.873Z,1002.98
2017-01-16T12:22:50.618Z,1002.96
2017-01-16T12:24:00.967Z,1002.94
2017-01-16T12:25:11.321Z,1002.95
2017-01-16T12:26:21.655Z,1002.91
2017-01-16T12:27:31.634Z,1002.9
2017-01-16T12:28:41.981Z,1002.91
2017-01-16T12:29:52.344Z,1002.95
2017-01-16T12:31:02.297Z,1002.97
2017-01-16T12:32:12.636Z,1002.94
2017-01-16T12:33:23.391Z,1002.97
2017-01-16T12:34:33.749Z,1003
2017-01-16T12:35:44.091Z,1002.99
2017-01-16T12:36:54.437Z,1002.95
2017-01-16T12:38:04.783Z,1002.92
2017-01-16T12:39:15.166Z,1002.99
2017-01-16T12:40:25.506Z,1002.95
2017-01-16T12:41:35.464Z,1002.95
2017-01-16T12:42:45.435Z,1002.95
2017-01-16T12:43:56.431Z,1002.99
2017-01-16T12:45:07.208Z,1002.97
2017-01-16T12:46:17.566Z,1002.96
2017-01-16T12:47:28.299Z,1002.95
2017-01-16T12:48:38.669Z,1002.99
2017-01-16T12:49:49.014Z,1002.95
2017-01-16T12:50:58.951Z,1002.94
2017-01-16T12:52:08.908Z,1002.9
2017-01-16T12:53:19.248Z,1002.92
2017-01-16T12:54:29.624Z,1002.9
2017-01-16T12:55:39.982Z,1002.95
2017-01-16T12:56:50.759Z,1002.88
2017-01-16T12:58:00.716Z,1002.91
2017-01-16T12:59:11.067Z,1002.89
2017-01-16T13:00:21.415Z,1002.92
2017-01-16T13:01:32.155Z,1002.95
2017-01-16T13:02:42.913Z,1002.93
2017-01-16T13:03:52.874Z,1002.92
2017-01-16T13:05:03.226Z,1002.92
2017-01-16T13:06:13.237Z,1002.9
2017-01-16T13:07:23.999Z,1002.87
2017-01-16T13:08:33.946Z,1002.9
2017-01-16T13:09:44.305Z,1002.93
2017-01-16T13:10:54.675Z,1002.94
2017-01-16T13:12:05.036Z,1002.96
2017-01-16T13:13:15.383Z,1002.96
2017-01-16T13:14:25.735Z,1002.99
2017-01-16T13:15:36.087Z,1002.95
2017-01-16T13:16:46.035Z,1002.99
2017-01-16T13:17:56.846Z,1002.97
2017-01-16T13:19:07.214Z,1002.95
2017-01-16T13:20:17.964Z,1003
2017-01-16T13:21:28.346Z,1003.02
2017-01-16T13:22:38.728Z,1003.03
2017-01-16T13:23:49.477Z,1003.04
2017-01-16T13:24:59.432Z,1003.06
2017-01-16T13:26:10.180Z,1003.09
2017-01-16T13:27:20.556Z,1003.1
2017-01-16T13:28:31.318Z,1003.06
2017-01-16T13:29:42.066Z,1003.09
2017-01-16T13:30:52.831Z,1003.12
2017-01-16T13:32:03.568Z,1003.1
2017-01-16T13:33:13.944Z,1003.12
2017-01-16T13:34:23.898Z,1003.12
2017-01-16T13:35:34.244Z,1003.12
2017-01-16T13:36:44.584Z,1003.14
2017-01-16T13:37:54.544Z,1003.13
2017-01-16T13:39:05.279Z,1003.18
2017-01-16T13:40:16.021Z,1003.18
2017-01-16T13:41:26.763Z,1003.2
2017-01-16T13:42:36.729Z,1003.21
2017-01-16T13:43:46.721Z,1003.2
2017-01-16T13:44:57.465Z,1003.21
2017-01-16T13:46:08.200Z,1003.24
2017-01-16T13:47:18.567Z,1003.23
2017-01-16T13:48:28.909Z,1003.23
2017-01-16T13:49:39.270Z,1003.28
2017-01-16T13:50:48.841Z,1003.26
2017-01-16T13:51:59.584Z,1003.24
2017-01-16T13:53:09.577Z,1003.27
2017-01-16T13:54:20.323Z,1003.24
2017-01-16T13:55:30.280Z,1003.25
2017-01-16T13:56:41.033Z,1003.29
2017-01-16T13:57:51.776Z,1003.26
2017-01-16T13:59:02.528Z,1003.24
2017-01-16T14:00:12.903Z,1003.29
2017-01-16T14:01:23.259Z,1003.29
2017-01-16T14:02:34.026Z,1003.28
2017-01-16T14:03:44.769Z,1003.26
2017-01-16T14:04:55.127Z,1003.29
2017-01-16T14:06:05.493Z,1003.27
2017-01-16T14:07:15.893Z,1003.24
2017-01-16T14:08:26.247Z,1003.29
2017-01-16T14:09:36.599Z,1003.29
2017-01-16T14:10:46.930Z,1003.28
2017-01-16T14:11:57.281Z,1003.31
2017-01-16T14:13:06.472Z,1003.26
2017-01-16T14:14:17.274Z,1003.32
2017-01-16T14:15:28.046Z,1003.31
2017-01-16T14:16:38.418Z,1003.31
2017-01-16T14:17:48.767Z,1003.26
2017-01-16T14:18:59.123Z,1003.28
2017-01-16T14:20:09.485Z,1003.32
2017-01-16T14:21:20.230Z,1003.3
2017-01-16T14:22:30.587Z,1003.26
2017-01-16T14:23:41.330Z,1003.3
2017-01-16T14:24:51.687Z,1003.32
2017-01-16T14:26:02.442Z,1003.33
2017-01-16T14:27:13.206Z,1003.34
2017-01-16T14:28:23.948Z,1003.31
2017-01-16T14:29:34.293Z,1003.32
2017-01-16T14:30:44.636Z,1003.33
2017-01-16T14:31:55.367Z,1003.36
2017-01-16T14:33:06.140Z,1003.32
2017-01-16T14:34:16.106Z,1003.35
2017-01-16T14:35:26.457Z,1003.32
2017-01-16T14:36:37.219Z,1003.36
2017-01-16T14:37:48.030Z,1003.31
2017-01-16T14:38:58.442Z,1003.36
2017-01-16T14:40:09.274Z,1003.35
2017-01-16T14:41:19.675Z,1003.38
2017-01-16T14:42:30.471Z,1003.4
2017-01-16T14:43:40.866Z,1003.39
2017-01-16T14:44:51.675Z,1003.38